Time;durP1;ratioP1;P1;durP2;ratioP2;P2;SDS_P1;SDS_P2;PMS_P1;PMS_P2;Temp;Humidity;BMP_temperature;BMP_pressure;BME280_temperature;BME280_humidity;BME280_pressure;Samples;Min_cycle;Max_cycle;Signal;HPM_P1;HPM_P2
2022/11/10 00:00:44;;;;;;;1.10;0.60;;;11.30;88.60;;;;;;4996012;28;20022;-82
2022/11/10 00:03:10;;;;;;;0.85;0.60;;;11.20;88.40;;;;;;4999858;28;20483;-83
2022/11/10 00:05:37;;;;;;;1.50;0.40;;;11.20;89.40;;;;;;5009277;28;20026;-89
2022/11/10 00:08:05;;;;;;;2.47;0.75;;;11.20;88.70;;;;;;4987808;28;20113;-88
2022/11/10 00:10:31;;;;;;;1.67;0.77;;;11.20;88.70;;;;;;5013364;28;20037;-89
2022/11/10 00:13:01;;;;;;;2.75;0.68;;;11.30;88.80;;;;;;4979997;28;20041;-90
2022/11/10 00:18:11;;;;;;;3.85;0.70;;;11.30;88.60;;;;;;4996288;28;20023;-85
2022/11/10 00:20:37;;;;;;;1.45;0.80;;;11.30;88.40;;;;;;4978205;28;20026;-86
2022/11/10 00:23:02;;;;;;;2.42;1.00;;;11.30;88.20;;;;;;4995182;28;20018;-86
2022/11/10 00:25:30;;;;;;;1.20;1.00;;;11.30;88.20;;;;;;4977791;28;20036;-86
2022/11/10 00:27:58;;;;;;;1.17;0.80;;;11.30;88.10;;;;;;4994997;28;20027;-85
2022/11/10 00:30:24;;;;;;;4.38;0.68;;;11.30;88.00;;;;;;4974479;28;20023;-86
2022/11/10 00:32:50;;;;;;;3.10;1.40;;;11.30;88.00;;;;;;4974672;28;20023;-86
2022/11/10 00:35:15;;;;;;;3.42;1.10;;;11.30;87.90;;;;;;4977141;28;20506;-86
2022/11/10 00:37:41;;;;;;;2.47;1.08;;;11.30;87.90;;;;;;4978351;28;20132;-87
2022/11/10 00:40:07;;;;;;;2.65;1.10;;;11.30;88.10;;;;;;4962555;28;20467;-88
2022/11/10 00:42:33;;;;;;;1.30;0.90;;;11.20;87.80;;;;;;4995555;28;20440;-88
2022/11/10 00:44:58;;;;;;;1.95;1.10;;;11.20;88.00;;;;;;4979301;28;20022;-86
2022/11/10 00:47:24;;;;;;;2.38;1.20;;;11.30;88.30;;;;;;4995250;28;20407;-84
2022/11/10 00:49:49;;;;;;;3.58;1.65;;;11.20;87.90;;;;;;4977783;28;20069;-88
2022/11/10 00:52:15;;;;;;;2.33;1.42;;;11.20;87.90;;;;;;4995094;28;20065;-86
2022/11/10 00:54:40;;;;;;;2.00;1.10;;;11.10;88.00;;;;;;4994907;28;20038;-87
2022/11/10 00:57:06;;;;;;;2.25;1.17;;;11.10;88.10;;;;;;4994957;28;20491;-87
2022/11/10 00:59:32;;;;;;;1.75;1.00;;;11.10;88.00;;;;;;4978326;28;20045;-89
2022/11/10 01:01:57;;;;;;;1.48;1.13;;;11.20;88.00;;;;;;5002618;28;20018;-86
2022/11/10 01:04:23;;;;;;;3.30;1.00;;;11.20;88.00;;;;;;5036453;28;20026;-89
2022/11/10 01:06:50;;;;;;;2.90;1.23;;;11.20;87.80;;;;;;5034831;28;20025;-89
2022/11/10 01:09:16;;;;;;;3.63;1.00;;;11.20;87.60;;;;;;5017066;28;20068;-89
2022/11/10 01:11:41;;;;;;;1.95;1.02;;;11.20;87.20;;;;;;5017297;28;20027;-89
2022/11/10 01:14:07;;;;;;;2.55;0.80;;;11.10;86.50;;;;;;5034394;28;20469;-89
2022/11/10 01:16:32;;;;;;;3.35;0.90;;;11.10;86.20;;;;;;5033958;28;20076;-89
2022/11/10 01:19:00;;;;;;;3.33;1.00;;;11.10;86.30;;;;;;5034609;28;20017;-89
2022/11/10 01:21:27;;;;;;;2.72;0.93;;;11.10;85.70;;;;;;5016907;28;20026;-88
2022/11/10 01:23:53;;;;;;;4.95;1.20;;;11.00;85.80;;;;;;5016626;28;20386;-89
2022/11/10 01:26:19;;;;;;;1.63;1.17;;;11.00;85.90;;;;;;5034535;28;20026;-89
2022/11/10 01:28:45;;;;;;;3.20;1.63;;;11.00;86.30;;;;;;5016908;28;20033;-90
2022/11/10 01:31:13;;;;;;;1.73;1.00;;;11.00;86.70;;;;;;5016780;28;20025;-89
2022/11/10 01:33:39;;;;;;;1.83;1.20;;;10.90;86.90;;;;;;5016582;28;20072;-87
2022/11/10 01:36:06;;;;;;;3.10;1.30;;;10.90;87.10;;;;;;5015779;28;20458;-85
2022/11/10 01:38:34;;;;;;;1.15;0.98;;;10.90;87.30;;;;;;5015685;28;20029;-86
2022/11/10 01:41:00;;;;;;;1.58;1.05;;;10.90;87.40;;;;;;5015655;28;20018;-86
2022/11/10 01:43:27;;;;;;;2.45;1.00;;;10.80;87.40;;;;;;5033370;28;20434;-87
2022/11/10 01:46:04;;;;;;;1.42;1.13;;;10.80;87.50;;;;;;5018145;28;20022;-85
2022/11/10 01:48:46;;;;;;;1.67;1.00;;;10.70;88.40;;;;;;5019659;28;20083;-87
2022/11/10 01:51:39;;;;;;;4.20;1.33;;;10.70;87.60;;;;;;5034402;28;20029;-87
2022/11/10 01:54:11;;;;;;;3.15;1.10;;;10.70;87.60;;;;;;5015777;28;20037;-86
2022/11/10 01:56:42;;;;;;;6.90;1.30;;;10.60;87.40;;;;;;5033618;28;20022;-88
2022/11/10 01:59:13;;;;;;;4.03;1.25;;;10.60;87.30;;;;;;5033336;28;20026;-83
2022/11/10 02:01:39;;;;;;;3.03;1.05;;;10.50;87.20;;;;;;5032605;28;20022;-82
2022/11/10 02:04:10;;;;;;;1.35;0.95;;;10.50;87.20;;;;;;5031336;28;20025;-82
2022/11/10 02:06:39;;;;;;;3.70;1.40;;;10.40;87.10;;;;;;5032625;28;20025;-82
2022/11/10 02:09:05;;;;;;;2.97;1.35;;;10.40;87.00;;;;;;5032456;28;20548;-81
2022/11/10 02:11:32;;;;;;;3.58;1.20;;;10.30;87.00;;;;;;5032564;28;20029;-82
2022/11/10 02:13:58;;;;;;;4.43;1.02;;;10.20;87.10;;;;;;5032561;28;20089;-82
2022/11/10 02:16:24;;;;;;;2.38;1.20;;;10.20;88.10;;;;;;5031158;28;20026;-83
2022/11/10 02:18:50;;;;;;;2.13;1.00;;;10.20;87.30;;;;;;5032377;28;20076;-82
2022/11/10 02:21:16;;;;;;;1.63;1.00;;;10.20;87.20;;;;;;5032445;28;20030;-83
2022/11/10 02:23:45;;;;;;;2.85;0.77;;;10.10;87.20;;;;;;5032538;28;20029;-82
2022/11/10 02:26:11;;;;;;;4.70;1.08;;;10.00;87.30;;;;;;5032845;28;20025;-83
2022/11/10 02:28:37;;;;;;;1.48;0.70;;;10.00;87.10;;;;;;5036143;28;20057;-83
2022/11/10 02:31:04;;;;;;;2.15;1.17;;;10.00;87.10;;;;;;5036276;28;20071;-82
2022/11/10 02:33:30;;;;;;;1.77;1.00;;;10.00;87.30;;;;;;5036227;28;20036;-82
2022/11/10 02:35:56;;;;;;;3.63;0.88;;;10.00;87.20;;;;;;5036010;28;20037;-82
2022/11/10 02:38:22;;;;;;;3.38;1.48;;;9.90;87.30;;;;;;5035889;28;20021;-84
2022/11/10 02:40:50;;;;;;;2.03;0.93;;;9.90;87.30;;;;;;5035945;28;20033;-82
2022/11/10 02:43:18;;;;;;;3.80;1.13;;;9.90;87.10;;;;;;5035759;28;20053;-82
2022/11/10 02:45:44;;;;;;;2.80;1.10;;;9.80;87.00;;;;;;5034623;28;20382;-82
2022/11/10 02:48:12;;;;;;;2.75;0.90;;;9.60;87.00;;;;;;5018003;28;20037;-83
2022/11/10 02:50:38;;;;;;;4.47;1.15;;;9.60;87.20;;;;;;5034562;28;20017;-83
2022/11/10 02:53:04;;;;;;;3.88;1.60;;;9.60;87.30;;;;;;5034467;28;20033;-82
2022/11/10 02:55:29;;;;;;;2.45;1.00;;;9.60;87.30;;;;;;5035394;28;20095;-82
2022/11/10 02:57:55;;;;;;;5.07;1.38;;;9.60;87.30;;;;;;5035795;28;20018;-83
2022/11/10 03:00:21;;;;;;;2.58;1.17;;;9.50;87.60;;;;;;5035872;28;20032;-82
2022/11/10 03:02:47;;;;;;;2.08;1.00;;;9.50;87.80;;;;;;5017686;28;20033;-82
2022/11/10 03:05:12;;;;;;;2.53;1.42;;;9.50;87.80;;;;;;5017721;28;20021;-82
2022/11/10 03:07:39;;;;;;;7.13;1.75;;;9.50;87.60;;;;;;5017845;28;20022;-81
2022/11/10 03:10:06;;;;;;;2.88;1.30;;;9.40;88.00;;;;;;5035486;28;20045;-82
2022/11/10 03:12:31;;;;;;;5.07;1.45;;;9.30;87.80;;;;;;5017725;28;20025;-83
2022/11/10 03:14:57;;;;;;;11.95;1.90;;;9.40;88.00;;;;;;5017598;28;20033;-83
2022/11/10 03:17:22;;;;;;;5.32;1.45;;;9.40;88.20;;;;;;5035338;28;20040;-83
2022/11/10 03:19:49;;;;;;;4.00;1.17;;;9.40;88.30;;;;;;5035505;28;20506;-83
2022/11/10 03:22:14;;;;;;;2.15;1.10;;;9.50;88.20;;;;;;5035406;28;20344;-84
2022/11/10 03:24:40;;;;;;;4.57;1.05;;;9.50;87.90;;;;;;5035436;28;20091;-83
2022/11/10 03:27:05;;;;;;;3.53;1.10;;;9.60;87.70;;;;;;5017270;28;20022;-82
2022/11/10 03:29:31;;;;;;;3.88;1.15;;;9.60;87.50;;;;;;5034886;28;20030;-82
2022/11/10 03:31:57;;;;;;;8.32;1.20;;;9.60;87.40;;;;;;5017384;28;20079;-83
2022/11/10 03:34:22;;;;;;;1.98;0.93;;;9.60;87.30;;;;;;5017149;28;20478;-82
2022/11/10 03:36:48;;;;;;;4.78;1.10;;;9.60;87.40;;;;;;5017181;28;20390;-83
2022/11/10 03:39:14;;;;;;;3.42;1.25;;;9.70;87.40;;;;;;5016960;28;20170;-87
2022/11/10 03:41:39;;;;;;;3.28;1.60;;;9.70;87.20;;;;;;5035579;28;20056;-89
2022/11/10 03:44:05;;;;;;;5.55;1.55;;;9.70;87.20;;;;;;5036686;28;20060;-90
2022/11/10 03:46:31;;;;;;;5.70;1.55;;;9.70;87.30;;;;;;5036638;28;20025;-82
2022/11/10 03:48:56;;;;;;;6.72;1.15;;;9.70;87.20;;;;;;5034546;28;20104;-83
2022/11/10 03:51:22;;;;;;;7.07;1.50;;;9.60;87.20;;;;;;5016953;28;20386;-84
2022/11/10 03:53:48;;;;;;;2.63;1.05;;;9.60;87.40;;;;;;5034574;28;20057;-82
2022/11/10 03:56:13;;;;;;;7.03;1.45;;;9.50;87.50;;;;;;5034509;28;20029;-82
2022/11/10 03:58:40;;;;;;;4.65;1.13;;;9.50;87.60;;;;;;5033152;28;20028;-82
2022/11/10 04:01:05;;;;;;;6.93;1.20;;;9.50;87.60;;;;;;5034371;28;20382;-82
2022/11/10 04:03:31;;;;;;;4.15;1.20;;;9.50;87.50;;;;;;5035429;28;20025;-91
2022/11/10 04:08:59;;;;;;;4.05;1.27;;;9.50;87.70;;;;;;5034376;28;20068;-82
2022/11/10 04:16:57;;;;;;;3.25;1.05;;;9.50;87.70;;;;;;5033859;28;20079;-82
2022/11/10 04:19:23;;;;;;;5.10;1.30;;;9.40;88.10;;;;;;5034349;28;20021;-82
2022/11/10 04:21:49;;;;;;;4.80;1.33;;;9.30;88.50;;;;;;5016303;28;20462;-81
2022/11/10 04:24:14;;;;;;;4.03;1.65;;;9.20;88.80;;;;;;5033852;28;20553;-82
2022/11/10 04:26:41;;;;;;;5.25;1.63;;;9.20;89.00;;;;;;5033843;28;20025;-83
2022/11/10 04:29:09;;;;;;;6.80;1.70;;;9.20;89.30;;;;;;5033723;28;20029;-82
2022/11/10 04:31:39;;;;;;;5.80;1.13;;;9.20;89.50;;;;;;5016189;28;20028;-80
2022/11/10 04:34:07;;;;;;;3.15;1.25;;;9.30;89.50;;;;;;5032038;28;20032;-81
2022/11/10 04:36:35;;;;;;;1.65;0.90;;;9.30;89.20;;;;;;5015926;28;20037;-81
2022/11/10 04:39:00;;;;;;;1.40;1.05;;;9.30;89.30;;;;;;5015932;28;20025;-81
2022/11/10 04:41:29;;;;;;;4.25;1.45;;;9.30;89.10;;;;;;5033371;28;20034;-82
2022/11/10 04:43:54;;;;;;;5.50;2.45;;;9.40;88.90;;;;;;5015672;28;20036;-81
2022/11/10 04:46:34;;;;;;;12.18;6.32;;;9.40;88.70;;;;;;5033499;28;20403;-82
2022/11/10 04:49:00;;;;;;;14.65;8.95;;;9.40;88.50;;;;;;5033122;28;20021;-83
2022/11/10 04:51:32;;;;;;;17.85;10.50;;;9.40;88.40;;;;;;5014686;28;20482;-81
2022/11/10 04:53:58;;;;;;;19.63;10.15;;;9.40;88.50;;;;;;5015449;28;20390;-81
2022/11/10 04:56:25;;;;;;;18.30;8.90;;;9.50;88.70;;;;;;5028581;28;20018;-83
2022/11/10 04:58:51;;;;;;;14.48;7.80;;;9.40;88.50;;;;;;5012213;28;20030;-83
2022/11/10 05:01:19;;;;;;;12.63;6.22;;;9.40;88.30;;;;;;5032129;28;20025;-83
2022/11/10 05:03:46;;;;;;;9.35;4.90;;;9.50;88.30;;;;;;5033174;28;20032;-83
2022/11/10 05:06:12;;;;;;;13.23;5.00;;;9.40;89.10;;;;;;5033135;28;20034;-83
2022/11/10 05:08:38;;;;;;;8.00;3.97;;;9.50;88.30;;;;;;5015261;28;20532;-83
2022/11/10 05:11:04;;;;;;;8.55;3.53;;;9.50;87.90;;;;;;5015389;28;20034;-83
2022/11/10 05:13:30;;;;;;;8.70;2.78;;;9.50;87.60;;;;;;5033048;28;20040;-83
2022/11/10 05:15:56;;;;;;;10.15;4.25;;;9.50;87.60;;;;;;5015410;28;20033;-83
2022/11/10 05:18:23;;;;;;;4.82;2.38;;;9.50;87.60;;;;;;5031674;28;20430;-83
2022/11/10 05:20:48;;;;;;;6.82;3.05;;;9.50;87.60;;;;;;5014498;28;20025;-82
2022/11/10 05:25:58;;;;;;;9.43;4.22;;;9.40;87.70;;;;;;5013426;28;20072;-82
2022/11/10 05:28:24;;;;;;;8.85;4.15;;;9.40;87.90;;;;;;5012976;28;20054;-82
2022/11/10 05:30:50;;;;;;;7.65;4.28;;;9.40;88.00;;;;;;5013210;28;20022;-82
2022/11/10 05:33:15;;;;;;;8.23;4.25;;;9.40;88.00;;;;;;5013301;28;20036;-82
2022/11/10 05:35:41;;;;;;;10.80;4.93;;;9.50;87.80;;;;;;4995419;28;20387;-85
2022/11/10 05:38:07;;;;;;;9.82;5.07;;;9.40;87.60;;;;;;4995785;28;20048;-84
2022/11/10 05:40:33;;;;;;;7.72;4.22;;;9.40;87.50;;;;;;4995566;28;20033;-84
2022/11/10 05:42:59;;;;;;;7.00;3.50;;;9.40;87.50;;;;;;4995608;28;20457;-83
2022/11/10 05:45:27;;;;;;;10.02;3.35;;;9.30;87.60;;;;;;5012905;28;20025;-83
2022/11/10 05:47:53;;;;;;;7.00;3.10;;;9.30;87.70;;;;;;4995672;28;20117;-82
2022/11/10 05:50:21;;;;;;;5.28;3.45;;;9.30;87.80;;;;;;4995546;28;20034;-83
2022/11/10 05:52:50;;;;;;;7.15;3.38;;;9.30;87.90;;;;;;4995555;28;20030;-82
2022/11/10 05:55:19;;;;;;;7.40;2.97;;;9.20;87.70;;;;;;5011905;28;20446;-82
2022/11/10 05:57:46;;;;;;;6.20;2.55;;;9.10;87.80;;;;;;4995870;28;20025;-83
2022/11/10 06:00:14;;;;;;;3.53;1.83;;;9.00;87.80;;;;;;5013134;28;20022;-83
2022/11/10 06:02:39;;;;;;;7.15;2.20;;;9.00;88.00;;;;;;4998445;28;20025;-82
2022/11/10 06:05:06;;;;;;;9.25;2.90;;;8.90;88.00;;;;;;5016768;28;20022;-83
2022/11/10 06:07:31;;;;;;;5.78;2.67;;;8.90;88.10;;;;;;4999082;28;20483;-84
2022/11/10 06:09:57;;;;;;;8.32;2.50;;;8.90;88.10;;;;;;4999308;28;20026;-84
2022/11/10 06:12:24;;;;;;;9.05;3.53;;;8.90;87.90;;;;;;5016655;28;20080;-83
2022/11/10 06:14:50;;;;;;;5.45;2.72;;;8.90;87.90;;;;;;4998717;28;20041;-83
2022/11/10 06:17:17;;;;;;;9.15;4.05;;;8.80;87.80;;;;;;4998714;28;20053;-83
2022/11/10 06:19:42;;;;;;;7.88;3.42;;;8.80;87.70;;;;;;4999576;28;20088;-83
2022/11/10 06:22:08;;;;;;;9.52;2.85;;;8.70;87.80;;;;;;5004263;28;20022;-83
2022/11/10 06:24:34;;;;;;;7.03;2.53;;;8.60;87.80;;;;;;5002007;28;20025;-82
2022/11/10 06:26:59;;;;;;;6.80;2.85;;;8.60;88.20;;;;;;5016657;28;20097;-82
2022/11/10 06:29:25;;;;;;;10.70;2.50;;;8.50;88.50;;;;;;5015213;28;20038;-84
2022/11/10 06:31:50;;;;;;;6.63;2.38;;;8.50;88.60;;;;;;5016083;28;20026;-85
2022/11/10 06:34:16;;;;;;;6.13;2.45;;;8.50;88.70;;;;;;4998381;28;20060;-84
2022/11/10 06:36:41;;;;;;;7.28;2.25;;;8.60;88.70;;;;;;5015826;28;20030;-84
2022/11/10 06:39:10;;;;;;;4.75;2.92;;;8.60;88.60;;;;;;4998519;28;20381;-84
2022/11/10 06:41:36;;;;;;;6.38;3.15;;;8.70;88.20;;;;;;4998336;28;20054;-83
2022/11/10 06:44:05;;;;;;;6.93;3.53;;;8.60;87.90;;;;;;4998593;28;20076;-83
2022/11/10 06:46:31;;;;;;;18.90;8.57;;;8.60;87.30;;;;;;4998275;28;20494;-83
2022/11/10 06:49:00;;;;;;;9.30;4.60;;;8.50;87.60;;;;;;5015037;28;20030;-83
2022/11/10 06:51:25;;;;;;;7.93;4.07;;;8.60;88.20;;;;;;4998532;28;20022;-83
2022/11/10 06:53:51;;;;;;;12.25;3.97;;;8.60;88.10;;;;;;5016063;28;20030;-83
2022/11/10 06:56:16;;;;;;;9.65;3.00;;;8.60;87.90;;;;;;4998492;28;20407;-82
2022/11/10 06:58:42;;;;;;;6.05;3.00;;;8.60;87.80;;;;;;4998251;28;20426;-83
2022/11/10 07:01:07;;;;;;;6.30;2.63;;;8.60;87.60;;;;;;4998468;28;20433;-83
2022/11/10 07:03:34;;;;;;;6.22;2.20;;;8.60;87.70;;;;;;5016945;28;20032;-85
2022/11/10 07:06:00;;;;;;;8.25;3.15;;;8.70;87.90;;;;;;4999302;28;20376;-85
2022/11/10 07:08:26;;;;;;;7.95;3.80;;;8.80;87.60;;;;;;5015759;28;20018;-83
2022/11/10 07:10:53;;;;;;;7.60;4.32;;;8.80;87.00;;;;;;4998031;28;20049;-83
2022/11/10 07:13:20;;;;;;;11.00;4.10;;;8.80;86.80;;;;;;5015942;28;20156;-83
2022/11/10 07:15:45;;;;;;;6.50;3.80;;;8.90;86.60;;;;;;5016735;28;20483;-82
2022/11/10 07:18:11;;;;;;;12.13;4.15;;;9.00;86.10;;;;;;4999442;28;20033;-82
2022/11/10 07:20:36;;;;;;;11.30;4.60;;;9.00;86.10;;;;;;5016513;28;20450;-83
2022/11/10 07:23:05;;;;;;;15.07;4.53;;;9.00;86.00;;;;;;4998196;28;20025;-83
2022/11/10 07:25:35;;;;;;;14.73;4.70;;;8.90;86.30;;;;;;5017190;28;20026;-84
2022/11/10 07:28:04;;;;;;;8.85;4.00;;;9.00;86.30;;;;;;4999841;28;20026;-85
2022/11/10 07:30:31;;;;;;;10.00;4.57;;;9.00;86.10;;;;;;4998997;28;20018;-83
2022/11/10 07:33:02;;;;;;;8.88;4.55;;;9.10;86.10;;;;;;4997084;28;20053;-84
2022/11/10 07:35:29;;;;;;;8.48;4.22;;;9.20;86.00;;;;;;4996596;28;20482;-84
2022/11/10 07:38:00;;;;;;;14.85;5.88;;;9.30;85.90;;;;;;4997036;28;20026;-85
2022/11/10 07:40:26;;;;;;;10.70;4.55;;;9.40;85.30;;;;;;4999035;28;20053;-84
2022/11/10 07:42:51;;;;;;;5.07;3.30;;;9.40;84.90;;;;;;4998345;28;20057;-85
2022/11/10 07:45:17;;;;;;;10.38;4.13;;;9.50;85.10;;;;;;4997734;28;20449;-84
2022/11/10 07:47:43;;;;;;;7.20;4.32;;;9.60;84.80;;;;;;5002596;28;20387;-86
2022/11/10 07:50:09;;;;;;;8.10;3.92;;;9.70;84.80;;;;;;4996934;28;20049;-85
2022/11/10 07:52:35;;;;;;;10.68;4.70;;;9.80;84.40;;;;;;4997358;28;20370;-83
2022/11/10 07:55:00;;;;;;;6.32;3.78;;;10.00;84.80;;;;;;4997347;28;20030;-88
2022/11/10 07:57:27;;;;;;;5.63;3.40;;;10.00;83.40;;;;;;4998286;28;20104;-85
2022/11/10 07:59:53;;;;;;;10.50;4.63;;;10.20;83.50;;;;;;5014408;28;20026;-87
2022/11/10 08:02:18;;;;;;;21.50;6.07;;;10.20;82.50;;;;;;4997547;28;20022;-84
2022/11/10 08:04:44;;;;;;;13.98;5.30;;;10.30;82.60;;;;;;4997328;28;20018;-84
2022/11/10 08:07:09;;;;;;;8.73;5.20;;;10.30;82.20;;;;;;4996626;28;20241;-84
2022/11/10 08:09:35;;;;;;;11.43;4.95;;;10.50;82.00;;;;;;5014289;28;20537;-85
2022/11/10 08:12:00;;;;;;;13.20;5.82;;;10.50;82.00;;;;;;4996848;28;20080;-85
2022/11/10 08:14:26;;;;;;;12.18;4.28;;;10.50;81.50;;;;;;4996744;28;20042;-89
2022/11/10 08:16:52;;;;;;;10.77;4.53;;;10.60;82.30;;;;;;5015514;28;20022;-88
2022/11/10 08:19:17;;;;;;;13.07;5.20;;;10.80;82.20;;;;;;5013847;28;20185;-85
2022/11/10 08:21:43;;;;;;;8.35;4.05;;;10.90;81.10;;;;;;5013920;28;20065;-88
2022/11/10 08:24:08;;;;;;;8.65;4.55;;;11.00;81.10;;;;;;5015329;28;20026;-93
2022/11/10 08:26:34;;;;;;;8.55;5.28;;;11.20;80.30;;;;;;4997561;28;20502;-83
2022/11/10 08:29:00;;;;;;;8.88;4.50;;;11.30;80.10;;;;;;5014335;28;20121;-84
2022/11/10 08:31:25;;;;;;;11.05;4.10;;;11.60;80.30;;;;;;4996490;28;20541;-80
2022/11/10 08:33:51;;;;;;;19.42;5.82;;;11.80;82.40;;;;;;5011971;28;20021;-79
2022/11/10 08:36:16;;;;;;;10.95;4.90;;;12.10;81.60;;;;;;5013428;28;20117;-77
2022/11/10 08:38:42;;;;;;;8.75;4.20;;;12.60;80.50;;;;;;4995977;28;20054;-79
2022/11/10 08:41:08;;;;;;;13.35;4.28;;;13.00;77.80;;;;;;5013343;28;20032;-78
2022/11/10 08:43:33;;;;;;;9.43;3.92;;;13.40;75.90;;;;;;4995703;28;20384;-80
2022/11/10 08:46:00;;;;;;;9.88;3.53;;;13.80;73.70;;;;;;5013422;28;20041;-81
2022/11/10 08:48:26;;;;;;;8.18;3.42;;;14.10;72.40;;;;;;5013394;28;20018;-80
2022/11/10 08:50:52;;;;;;;10.52;4.65;;;14.30;71.50;;;;;;5013393;28;20080;-79
2022/11/10 08:53:23;;;;;;;9.48;4.63;;;14.60;70.10;;;;;;5013040;28;20357;-79
2022/11/10 08:55:49;;;;;;;12.57;6.65;;;14.80;69.50;;;;;;5011931;28;20038;-79
2022/11/10 08:58:16;;;;;;;9.00;4.25;;;14.80;66.90;;;;;;5013421;28;20109;-81
2022/11/10 09:00:42;;;;;;;9.13;4.00;;;14.90;66.90;;;;;;4995653;28;20382;-83
2022/11/10 09:03:14;;;;;;;7.50;3.47;;;15.10;67.00;;;;;;5013146;28;20022;-80
2022/11/10 09:05:41;;;;;;;5.65;2.80;;;15.40;66.50;;;;;;4997883;28;20033;-80
2022/11/10 09:08:07;;;;;;;8.82;3.00;;;15.70;65.00;;;;;;5013570;28;20022;-81
2022/11/10 09:10:36;;;;;;;6.82;3.40;;;15.90;64.50;;;;;;5013409;28;20128;-80
2022/11/10 09:13:03;;;;;;;8.75;3.60;;;16.20;63.00;;;;;;5013137;28;20021;-80
2022/11/10 09:15:30;;;;;;;9.02;5.63;;;16.40;62.10;;;;;;5013110;28;20034;-79
2022/11/10 09:18:00;;;;;;;6.85;2.63;;;16.60;60.10;;;;;;5015958;28;20113;-79
2022/11/10 09:20:27;;;;;;;6.00;1.85;;;16.70;58.50;;;;;;4992472;28;20026;-79
2022/11/10 09:22:53;;;;;;;5.90;1.75;;;17.00;57.10;;;;;;5008854;28;20381;-78
2022/11/10 09:25:19;;;;;;;5.63;1.70;;;17.10;56.80;;;;;;4994941;28;20029;-80
2022/11/10 09:27:44;;;;;;;6.72;2.03;;;17.30;55.90;;;;;;5013102;28;20420;-78
2022/11/10 09:30:11;;;;;;;4.05;1.45;;;17.40;54.20;;;;;;5012998;28;20080;-80
2022/11/10 09:32:36;;;;;;;3.55;1.50;;;17.40;54.20;;;;;;4995048;28;20044;-82
2022/11/10 09:35:03;;;;;;;6.38;1.40;;;17.50;53.70;;;;;;5012703;28;20486;-81
2022/11/10 09:37:28;;;;;;;5.18;1.75;;;17.50;53.50;;;;;;5016253;28;20033;-85
2022/11/10 09:39:54;;;;;;;7.90;1.85;;;17.50;51.50;;;;;;4999610;28;20536;-83
2022/11/10 09:42:29;;;;;;;4.85;1.40;;;16.90;53.60;;;;;;4999653;28;20038;-83
2022/11/10 09:45:05;;;;;;;5.78;1.50;;;16.50;54.60;;;;;;5016955;28;20021;-83
2022/11/10 09:47:41;;;;;;;6.55;1.55;;;16.40;53.50;;;;;;5016877;28;20496;-83
2022/11/10 09:50:16;;;;;;;3.75;1.10;;;16.30;54.10;;;;;;5017058;28;20490;-83
2022/11/10 09:55:25;;;;;;;;;;;15.90;56.00;;;;;;5353042;22;20343;-82
2022/11/10 09:57:57;;;;;;;4.53;1.20;;;16.20;55.60;;;;;;4997987;28;20440;-83
2022/11/10 10:00:22;;;;;;;6.50;1.52;;;16.30;54.30;;;;;;5017136;28;20033;-83
2022/11/10 10:02:55;;;;;;;5.90;1.15;;;16.10;54.70;;;;;;5017377;28;20029;-83
2022/11/10 10:05:36;;;;;;;3.75;1.10;;;16.00;56.30;;;;;;5016327;28;20121;-83
2022/11/10 10:08:14;;;;;;;3.78;1.25;;;16.20;55.50;;;;;;5011941;28;20035;-83
2022/11/10 10:10:48;;;;;;;6.55;1.63;;;16.10;55.10;;;;;;5016766;28;20026;-84
2022/11/10 10:13:34;;;;;;;10.90;2.45;;;15.70;56.40;;;;;;5014062;28;20407;-84
2022/11/10 10:16:29;;;;;;;10.80;1.73;;;15.60;57.10;;;;;;5015839;28;20390;-84
2022/11/10 10:19:01;;;;;;;7.90;2.05;;;15.60;58.20;;;;;;5010999;28;20030;-83
2022/11/10 10:21:54;;;;;;;7.30;1.35;;;15.80;57.20;;;;;;5010498;28;20026;-83
2022/11/10 10:24:22;;;;;;;4.45;1.13;;;16.00;55.20;;;;;;5012784;28;20371;-83
2022/11/10 10:26:55;;;;;;;5.05;1.40;;;16.30;54.30;;;;;;4990913;28;20451;-83
2022/11/10 10:29:31;;;;;;;4.38;1.33;;;16.60;53.00;;;;;;5017930;28;20030;-84
2022/11/10 10:32:00;;;;;;;4.82;1.20;;;17.00;51.80;;;;;;5012676;28;20116;-82
2022/11/10 10:34:35;;;;;;;5.63;1.10;;;17.20;50.90;;;;;;5009593;28;20143;-84
2022/11/10 10:37:04;;;;;;;4.90;1.13;;;17.50;49.20;;;;;;5010267;28;20121;-85
2022/11/10 10:39:42;;;;;;;6.00;1.45;;;17.60;48.00;;;;;;5013944;28;20040;-85
2022/11/10 10:42:26;;;;;;;4.80;1.08;;;17.80;47.40;;;;;;4984443;28;20116;-84
2022/11/10 10:45:24;;;;;;;9.68;1.45;;;17.90;47.40;;;;;;5006462;28;20034;-84
2022/11/10 10:48:01;;;;;;;3.97;1.13;;;18.00;47.90;;;;;;5015137;28;20517;-84
2022/11/10 10:50:53;;;;;;;6.35;1.40;;;17.60;49.40;;;;;;4998301;28;20029;-84
2022/11/10 10:53:32;;;;;;;2.97;1.25;;;17.90;47.90;;;;;;5016307;28;20522;-84
2022/11/10 10:56:25;;;;;;;4.53;1.38;;;18.40;48.30;;;;;;5001875;28;20050;-85
2022/11/10 11:04:29;;;;;;;;;;;18.30;45.70;;;;;;5452176;23;20477;-85
2022/11/10 11:06:57;;;;;;;4.55;1.50;;;18.30;47.30;;;;;;5016582;28;20004;-84
2022/11/10 11:12:11;;;;;;;;;;;18.70;43.50;;;;;;5434573;22;20057;-83
2022/11/10 11:14:36;;;;;;;9.38;1.25;;;19.10;41.40;;;;;;5008806;28;19925;-84
2022/11/10 11:17:17;;;;;;;3.20;0.63;;;19.20;41.30;;;;;;5014760;28;20108;-83
2022/11/10 11:19:43;;;;;;;4.13;1.27;;;19.10;38.50;;;;;;5009675;28;20037;-83
2022/11/10 11:25:41;;;;;;;5.30;1.23;;;19.60;39.30;;;;;;5043500;22;20047;-84
2022/11/10 11:28:19;;;;;;;2.88;1.17;;;20.00;38.90;;;;;;5034050;28;20119;-84
2022/11/10 11:31:02;;;;;;;5.50;1.30;;;19.90;39.30;;;;;;5040582;28;20013;-83
2022/11/10 11:33:37;;;;;;;5.40;1.60;;;19.80;38.80;;;;;;5032967;28;20071;-85
2022/11/10 11:36:24;;;;;;;9.68;1.48;;;19.80;39.10;;;;;;5032967;28;20029;-84
2022/11/10 11:38:57;;;;;;;7.45;1.40;;;20.20;38.50;;;;;;5052980;28;20056;-83
2022/11/10 11:41:33;;;;;;;4.00;0.90;;;20.60;37.20;;;;;;5053367;28;20178;-83
2022/11/10 11:44:40;;;;;;;2.35;0.88;;;20.90;36.90;;;;;;5036043;28;20044;-84
2022/11/10 11:47:11;;;;;;;3.78;0.80;;;21.30;35.30;;;;;;5053973;28;20017;-84
2022/11/10 11:50:13;;;;;;;3.17;1.02;;;21.50;35.30;;;;;;5053434;28;20382;-83
2022/11/10 11:52:59;;;;;;;3.83;0.80;;;21.80;34.60;;;;;;5052927;28;20440;-84
2022/11/10 11:55:30;;;;;;;5.95;1.05;;;22.20;34.10;;;;;;5035387;28;20064;-84
2022/11/10 11:58:18;;;;;;;5.38;1.35;;;22.40;33.50;;;;;;5035328;28;20072;-84
2022/11/10 12:01:14;;;;;;;6.35;1.10;;;22.60;33.40;;;;;;5052917;28;20373;-83
2022/11/10 12:03:46;;;;;;;3.67;0.80;;;22.40;33.10;;;;;;5040118;28;20029;-83
2022/11/10 12:06:34;;;;;;;4.45;1.10;;;22.30;33.10;;;;;;5036972;28;20420;-84
2022/11/10 12:09:08;;;;;;;3.28;0.80;;;22.40;32.20;;;;;;5032132;28;20029;-84
2022/11/10 12:11:40;;;;;;;1.90;0.70;;;21.70;34.00;;;;;;5029805;28;20029;-84
2022/11/10 12:14:12;;;;;;;5.30;1.10;;;22.20;33.00;;;;;;5038685;28;20530;-84
2022/11/10 12:16:40;;;;;;;4.95;1.08;;;22.30;31.50;;;;;;5041997;28;20024;-84
2022/11/10 12:19:40;;;;;;;4.05;1.25;;;22.60;30.90;;;;;;5026650;28;20025;-84
2022/11/10 12:22:31;;;;;;;3.25;0.98;;;22.90;30.90;;;;;;5031536;28;20112;-85
2022/11/10 12:25:05;;;;;;;5.80;1.00;;;23.60;29.80;;;;;;5043676;28;20048;-84
2022/11/10 12:27:43;;;;;;;4.90;1.20;;;24.30;29.30;;;;;;5034718;28;20033;-85
2022/11/10 12:30:15;;;;;;;2.45;0.93;;;25.30;27.70;;;;;;5034431;28;20329;-85
2022/11/10 12:33:04;;;;;;;2.38;0.80;;;26.40;25.80;;;;;;5052840;28;20017;-84
2022/11/10 12:35:40;;;;;;;3.58;0.93;;;27.20;23.90;;;;;;5053769;28;20098;-86
2022/11/10 12:38:15;;;;;;;4.05;0.90;;;27.70;22.80;;;;;;5035571;28;20035;-86
2022/11/10 12:41:00;;;;;;;2.03;0.80;;;28.40;22.70;;;;;;5035467;28;20021;-85
2022/11/10 12:43:32;;;;;;;2.78;0.77;;;29.30;20.10;;;;;;5053414;28;20033;-83
2022/11/10 12:46:03;;;;;;;4.53;0.65;;;30.20;19.20;;;;;;5052930;28;20455;-84
2022/11/10 12:48:39;;;;;;;2.83;0.73;;;31.00;18.30;;;;;;5052769;28;20102;-83
2022/11/10 12:51:15;;;;;;;2.20;0.65;;;31.90;16.40;;;;;;5052519;28;20066;-83
2022/11/10 12:53:42;;;;;;;1.88;0.60;;;32.50;15.40;;;;;;5052780;28;20017;-83
2022/11/10 12:56:12;;;;;;;2.45;0.70;;;33.40;14.90;;;;;;5052651;28;20048;-84
2022/11/10 12:58:38;;;;;;;3.10;0.90;;;34.10;13.80;;;;;;5034771;28;20424;-83
2022/11/10 13:01:11;;;;;;;3.75;0.80;;;34.20;13.10;;;;;;5052635;28;20032;-85
2022/11/10 13:03:50;;;;;;;2.67;0.80;;;34.60;12.70;;;;;;5035458;28;20045;-85
2022/11/10 13:06:26;;;;;;;2.03;0.60;;;35.50;12.20;;;;;;5052893;28;20473;-79
2022/11/10 13:08:52;;;;;;;3.33;0.50;;;36.40;10.90;;;;;;5052421;28;20021;-80
2022/11/10 13:11:17;;;;;;;5.03;1.23;;;37.30;10.60;;;;;;5051210;28;20056;-79
2022/11/10 13:13:55;;;;;;;2.22;1.13;;;38.00;10.20;;;;;;5052319;28;20063;-77
2022/11/10 13:16:46;;;;;;;2.00;0.85;;;38.50;9.40;;;;;;5034999;28;20106;-78
2022/11/10 13:19:32;;;;;;;1.48;0.63;;;38.30;10.00;;;;;;5052535;28;20028;-77
2022/11/10 13:22:01;;;;;;;2.40;0.60;;;38.70;9.70;;;;;;5051900;28;20021;-81
2022/11/10 13:24:29;;;;;;;2.15;0.70;;;39.30;9.20;;;;;;5031138;28;20082;-80
2022/11/10 13:26:59;;;;;;;3.70;1.08;;;39.90;8.70;;;;;;5027443;28;20031;-77
2022/11/10 13:29:31;;;;;;;3.78;0.80;;;40.40;8.30;;;;;;5032501;28;20025;-80